createdAt,value
2022-09-10T00:01:53.617Z,100817.72
2022-09-10T00:04:20.318Z,100816.16
2022-09-10T00:06:47.070Z,100820.56
2022-09-10T00:09:14.118Z,100821.47
2022-09-10T00:11:41.833Z,100821.47
2022-09-10T00:14:13.773Z,100823.19
2022-09-10T00:16:41.041Z,100817.88
2022-09-10T00:19:07.926Z,100818.00
2022-09-10T00:21:35.796Z,100817.53
2022-09-10T00:24:05.243Z,100821.28
2022-09-10T00:26:35.485Z,100812.16
2022-09-10T00:29:02.497Z,100803.78
2022-09-10T00:31:30.565Z,100806.00
2022-09-10T00:33:58.175Z,100800.53
2022-09-10T00:36:27.390Z,100799.75
2022-09-10T00:38:55.585Z,100809.66
2022-09-10T00:41:24.271Z,100808.81
2022-09-10T00:43:52.398Z,100802.53
2022-09-10T00:46:43.569Z,100807.41
2022-09-10T00:49:13.566Z,100804.56
2022-09-10T00:51:40.561Z,100804.22
2022-09-10T00:54:07.917Z,100805.22
2022-09-10T00:56:35.129Z,100807.34
2022-09-10T00:59:03.200Z,100808.19
2022-09-10T01:01:31.078Z,100817.41
2022-09-10T01:03:57.808Z,100807.69
2022-09-10T01:06:24.822Z,100808.81
2022-09-10T01:08:51.530Z,100810.00
2022-09-10T01:11:42.736Z,100801.22
2022-09-10T01:14:28.500Z,100806.75
2022-09-10T01:17:22.997Z,100809.63
2022-09-10T01:20:17.887Z,100804.41
2022-09-10T01:22:57.720Z,100811.00
2022-09-10T01:25:46.261Z,100811.00
2022-09-10T01:28:23.233Z,100809.44
2022-09-10T01:30:55.751Z,100807.81
2022-09-10T01:33:26.961Z,100814.81
2022-09-10T01:36:07.005Z,100819.53
2022-09-10T01:38:35.920Z,100814.31
2022-09-10T01:41:04.736Z,100817.00
2022-09-10T01:43:36.653Z,100817.06
2022-09-10T01:46:16.851Z,100815.34
2022-09-10T01:49:02.770Z,100818.13
2022-09-10T01:52:00.564Z,100826.44
2022-09-10T01:55:00.245Z,100813.16
2022-09-10T01:57:37.103Z,100817.94
2022-09-10T02:00:11.636Z,100818.78
2022-09-10T02:03:18.393Z,100818.94
2022-09-10T02:05:49.659Z,100812.78
2022-09-10T02:08:21.303Z,100813.91
2022-09-10T02:10:55.434Z,100812.25
2022-09-10T02:13:25.508Z,100803.34
2022-09-10T02:16:32.136Z,100811.47
2022-09-10T02:19:00.876Z,100818.81
2022-09-10T02:21:27.970Z,100813.72
2022-09-10T02:23:58.834Z,100824.53
2022-09-10T02:26:26.078Z,100822.97
2022-09-10T02:28:53.788Z,100828.34
2022-09-10T02:31:22.622Z,100828.47
2022-09-10T02:33:49.882Z,100820.69
2022-09-10T02:36:16.826Z,100821.41
2022-09-10T02:38:44.426Z,100823.38
2022-09-10T02:41:11.260Z,100824.47
2022-09-10T02:43:38.350Z,100824.47
2022-09-10T02:46:08.638Z,100828.03
2022-09-10T02:48:36.907Z,100829.22
2022-09-10T02:51:03.893Z,100835.38
2022-09-10T02:53:31.854Z,100843.53
2022-09-10T02:56:03.320Z,100839.28
2022-09-10T02:58:34.272Z,100842.09
2022-09-10T03:01:18.375Z,100843.06
2022-09-10T03:03:54.059Z,100841.25
2022-09-10T03:06:21.991Z,100835.88
2022-09-10T03:08:49.352Z,100834.22
2022-09-10T03:11:16.780Z,100837.06
2022-09-10T03:13:46.176Z,100826.44
2022-09-10T03:16:13.960Z,100829.28
2022-09-10T03:18:43.775Z,100827.63
2022-09-10T03:21:16.219Z,100827.63
2022-09-10T03:23:44.986Z,100826.75
2022-09-10T03:26:14.398Z,100828.50
2022-09-10T03:28:43.798Z,100830.31
2022-09-10T03:31:13.851Z,100829.44
2022-09-10T03:33:44.560Z,100826.13
2022-09-10T03:36:13.524Z,100823.28
2022-09-10T03:38:41.991Z,100837.59
2022-09-10T03:41:09.195Z,100831.56
2022-09-10T03:43:36.042Z,100827.13
2022-09-10T03:46:06.782Z,100826.28
2022-09-10T03:48:39.705Z,100815.84
2022-09-10T03:51:08.372Z,100823.97
2022-09-10T03:53:35.100Z,100821.22
2022-09-10T03:56:03.555Z,100822.97
2022-09-10T03:58:31.139Z,100817.81
2022-09-10T04:00:58.555Z,100817.75
2022-09-10T04:03:26.067Z,100815.25
2022-09-10T04:05:52.850Z,100805.50
2022-09-10T04:08:20.740Z,100811.91
2022-09-10T04:10:48.396Z,100811.25
2022-09-10T04:13:15.994Z,100815.75
2022-09-10T04:15:45.574Z,100811.44
2022-09-10T04:18:12.518Z,100820.41
2022-09-10T04:20:39.591Z,100818.63
2022-09-10T04:23:09.565Z,100816.94
2022-09-10T04:25:38.310Z,100820.34
2022-09-10T04:28:05.017Z,100822.09
2022-09-10T04:30:32.706Z,100827.28
2022-09-10T04:33:00.939Z,100829.25
2022-09-10T04:35:30.759Z,100833.03
2022-09-10T04:37:58.766Z,100833.22
2022-09-10T04:40:27.361Z,100831.69
2022-09-10T04:42:54.405Z,100837.00
2022-09-10T04:45:21.690Z,100839.56
2022-09-10T04:47:49.626Z,100836.03
2022-09-10T04:50:20.462Z,100833.59
2022-09-10T04:53:08.063Z,100832.94
2022-09-10T04:55:36.882Z,100829.25
2022-09-10T04:58:03.638Z,100832.84
2022-09-10T05:00:30.379Z,100831.84
2022-09-10T05:02:58.042Z,100833.81
2022-09-10T05:05:25.221Z,100830.41
2022-09-10T05:07:53.582Z,100839.19
2022-09-10T05:10:21.580Z,100834.31
2022-09-10T05:12:48.459Z,100844.06
2022-09-10T05:15:15.328Z,100840.66
2022-09-10T05:17:42.120Z,100836.03
2022-09-10T05:20:09.164Z,100840.28
2022-09-10T05:22:42.447Z,100838.56
2022-09-10T05:25:09.681Z,100841.25
2022-09-10T05:27:37.607Z,100834.94
2022-09-10T05:30:05.909Z,100833.94
2022-09-10T05:32:32.861Z,100839.13
2022-09-10T05:34:59.817Z,100835.41
2022-09-10T05:37:27.051Z,100835.34
2022-09-10T05:39:53.950Z,100836.13
2022-09-10T05:42:22.356Z,100840.47
2022-09-10T05:44:49.354Z,100836.78
2022-09-10T05:47:16.113Z,100826.75
2022-09-10T05:49:43.325Z,100832.03
2022-09-10T05:52:10.060Z,100832.03
2022-09-10T05:54:36.841Z,100846.09
2022-09-10T05:57:04.145Z,100845.00
2022-09-10T05:59:30.865Z,100848.78
2022-09-10T06:01:58.334Z,100853.75
2022-09-10T06:04:25.724Z,100840.88
2022-09-10T06:06:52.518Z,100857.00
2022-09-10T06:09:20.688Z,100855.16
2022-09-10T06:11:54.604Z,100849.06
2022-09-10T06:14:22.368Z,100849.59
2022-09-10T06:16:50.123Z,100854.03
2022-09-10T06:19:17.128Z,100860.97
2022-09-10T06:21:43.917Z,100870.06
2022-09-10T06:24:10.781Z,100868.22
2022-09-10T06:26:41.698Z,100865.41
2022-09-10T06:29:12.601Z,100862.69
2022-09-10T06:31:40.922Z,100862.13
2022-09-10T06:34:07.989Z,100865.66
2022-09-10T06:36:35.010Z,100866.19
2022-09-10T06:39:03.659Z,100862.50
2022-09-10T06:41:38.791Z,100871.88
2022-09-10T06:44:10.839Z,100865.56
2022-09-10T06:49:31.530Z,100868.41
2022-09-10T06:51:58.545Z,100864.25
2022-09-10T06:54:26.585Z,100869.66
2022-09-10T06:56:58.237Z,100864.34
2022-09-10T06:59:25.416Z,100868.81
2022-09-10T07:01:52.272Z,100864.56
2022-09-10T07:04:20.725Z,100869.25
2022-09-10T07:06:49.319Z,100865.63
2022-09-10T07:09:16.935Z,100874.59
2022-09-10T07:11:57.529Z,100875.72
2022-09-10T07:14:24.579Z,100867.81
2022-09-10T07:16:53.525Z,100863.50
2022-09-10T07:19:23.423Z,100868.59
2022-09-10T07:21:50.810Z,100874.03
2022-09-10T07:24:17.609Z,100872.47
2022-09-10T07:27:16.600Z,100873.63
2022-09-10T07:29:43.763Z,100870.06
2022-09-10T07:32:15.097Z,100870.13
2022-09-10T07:34:41.860Z,100872.56
2022-09-10T07:37:09.132Z,100870.72
2022-09-10T07:39:36.384Z,100869.13
2022-09-10T07:42:03.131Z,100864.50
2022-09-10T07:44:34.755Z,100872.31
2022-09-10T07:47:03.508Z,100869.25
2022-09-10T07:49:32.824Z,100870.38
2022-09-10T07:52:00.197Z,100874.38
2022-09-10T07:54:32.622Z,100870.34
2022-09-10T07:57:00.497Z,100868.03
2022-09-10T07:59:27.984Z,100871.50
2022-09-10T08:02:00.564Z,100872.75
2022-09-10T08:04:36.767Z,100872.88
2022-09-10T08:07:07.270Z,100877.38
2022-09-10T08:12:26.892Z,100879.78
2022-09-10T08:14:59.937Z,100877.75
2022-09-10T08:17:30.384Z,100879.50
2022-09-10T08:19:57.761Z,100881.97
2022-09-10T08:22:26.086Z,100876.75
2022-09-10T08:24:57.127Z,100876.41
2022-09-10T08:27:29.408Z,100881.28
2022-09-10T08:29:57.745Z,100874.03
2022-09-10T08:32:24.574Z,100877.16
2022-09-10T08:34:52.667Z,100886.44
2022-09-10T08:37:19.744Z,100881.91
2022-09-10T08:39:47.823Z,100881.63
2022-09-10T08:42:23.834Z,100888.56
2022-09-10T08:44:54.659Z,100882.84
2022-09-10T08:47:56.025Z,100878.63
2022-09-10T08:50:28.147Z,100880.19
2022-09-10T08:53:01.144Z,100878.06
2022-09-10T08:55:32.024Z,100875.75
2022-09-10T08:58:19.127Z,100885.69
2022-09-10T09:00:54.787Z,100879.16
2022-09-10T09:03:32.228Z,100876.25
2022-09-10T09:06:05.758Z,100878.19
2022-09-10T09:08:48.824Z,100891.81
2022-09-10T09:11:44.892Z,100874.06
2022-09-10T09:14:39.689Z,100882.00
2022-09-10T09:17:43.937Z,100882.25
2022-09-10T09:20:18.382Z,100887.06
2022-09-10T09:23:03.629Z,100884.00
2022-09-10T09:25:41.589Z,100889.41
2022-09-10T09:28:15.453Z,100874.38
2022-09-10T09:30:49.466Z,100883.94
2022-09-10T09:33:21.233Z,100875.34
2022-09-10T09:35:54.159Z,100876.25
2022-09-10T09:38:25.179Z,100885.88
2022-09-10T09:40:58.904Z,100887.78
2022-09-10T09:43:36.597Z,100879.84
2022-09-10T09:46:06.826Z,100878.28
2022-09-10T09:48:40.984Z,100877.34
2022-09-10T09:51:13.155Z,100876.94
2022-09-10T09:53:42.351Z,100876.53
2022-09-10T09:56:24.782Z,100876.22
2022-09-10T09:58:52.346Z,100876.84
2022-09-10T10:01:24.099Z,100877.00
2022-09-10T10:04:03.132Z,100868.91
2022-09-10T10:06:32.695Z,100872.94
2022-09-10T10:09:02.201Z,100868.34
2022-09-10T10:11:49.249Z,100871.94
2022-09-10T10:14:32.571Z,100870.13
2022-09-10T10:17:01.064Z,100869.13
2022-09-10T10:19:34.471Z,100861.53
2022-09-10T10:22:19.774Z,100856.28
2022-09-10T10:24:49.538Z,100864.38
2022-09-10T10:27:25.622Z,100858.09
2022-09-10T10:30:07.723Z,100859.75
2022-09-10T10:32:44.770Z,100844.78
2022-09-10T10:35:29.762Z,100853.56
2022-09-10T10:38:13.930Z,100855.13
2022-09-10T10:40:50.923Z,100851.31
2022-09-10T10:43:32.789Z,100856.88
2022-09-10T10:46:12.030Z,100857.13
2022-09-10T10:49:03.564Z,100849.59
2022-09-10T10:52:00.483Z,100845.09
2022-09-10T10:54:42.620Z,100847.03
2022-09-10T10:57:12.185Z,100843.22
2022-09-10T10:59:47.976Z,100840.41
2022-09-10T11:02:53.266Z,100844.28
2022-09-10T11:05:45.111Z,100838.94
2022-09-10T11:08:19.555Z,100841.41
2022-09-10T11:10:54.768Z,100835.22
2022-09-10T11:13:24.628Z,100826.78
2022-09-10T11:15:56.164Z,100833.47
2022-09-10T11:18:25.230Z,100837.22
2022-09-10T11:20:54.770Z,100830.44
2022-09-10T11:23:29.055Z,100832.91
2022-09-10T11:26:13.611Z,100830.53
2022-09-10T11:29:08.082Z,100828.13
2022-09-10T11:31:42.876Z,100827.84
2022-09-10T11:34:33.091Z,100825.72
2022-09-10T11:37:07.135Z,100820.06
2022-09-10T11:39:35.731Z,100830.91
2022-09-10T11:42:22.529Z,100833.16
2022-09-10T11:45:19.781Z,100828.13
2022-09-10T11:48:00.391Z,100825.81
2022-09-10T11:50:38.135Z,100825.75
2022-09-10T11:53:07.697Z,100827.06
2022-09-10T11:55:58.165Z,100821.19
2022-09-10T11:58:43.455Z,100812.59
2022-09-10T12:01:19.396Z,100816.19
2022-09-10T12:04:05.781Z,100823.53
2022-09-10T12:07:10.795Z,100817.66
2022-09-10T12:10:13.619Z,100817.06
2022-09-10T12:12:53.419Z,100807.13
2022-09-10T12:15:26.020Z,100809.38
2022-09-10T12:18:00.055Z,100810.97
2022-09-10T12:20:42.454Z,100806.63
2022-09-10T12:23:18.138Z,100809.09
2022-09-10T12:25:45.585Z,100807.06
2022-09-10T12:28:45.852Z,100812.88
2022-09-10T12:31:15.537Z,100814.25
2022-09-10T12:33:42.609Z,100807.41
2022-09-10T12:36:14.378Z,100808.44
2022-09-10T12:39:18.844Z,100805.19
2022-09-10T12:41:45.576Z,100806.34
2022-09-10T12:44:27.619Z,100795.75
2022-09-10T12:47:16.696Z,100790.09
2022-09-10T12:49:48.315Z,100792.31
2022-09-10T12:52:23.218Z,100786.81
2022-09-10T12:55:18.761Z,100787.09
2022-09-10T12:58:24.232Z,100783.94
2022-09-10T13:00:54.066Z,100784.91
2022-09-10T13:03:22.371Z,100778.06
2022-09-10T13:05:53.384Z,100782.03
2022-09-10T13:08:28.250Z,100776.38
2022-09-10T13:11:02.543Z,100776.72
2022-09-10T13:13:43.953Z,100781.69
2022-09-10T13:16:38.388Z,100783.63
2022-09-10T13:19:14.239Z,100780.53
2022-09-10T13:21:41.361Z,100778.41
2022-09-10T13:24:36.416Z,100785.31
2022-09-10T13:27:03.396Z,100782.00
2022-09-10T13:29:52.764Z,100777.91
2022-09-10T13:32:34.754Z,100774.38
2022-09-10T13:35:29.766Z,100775.50
2022-09-10T13:38:08.909Z,100775.72
2022-09-10T13:41:13.532Z,100779.59
2022-09-10T13:44:01.353Z,100780.91
2022-09-10T13:46:41.904Z,100775.88
2022-09-10T13:49:19.896Z,100773.56
2022-09-10T13:51:52.153Z,100769.28
2022-09-10T13:54:40.008Z,100763.69
2022-09-10T13:57:26.539Z,100768.00
2022-09-10T14:00:11.493Z,100771.44
2022-09-10T14:02:58.939Z,100762.22
2022-09-10T14:05:26.739Z,100759.19
2022-09-10T14:07:55.711Z,100762.22
2022-09-10T14:10:22.669Z,100765.81
2022-09-10T14:12:50.298Z,100768.25
2022-09-10T14:15:20.666Z,100766.13
2022-09-10T14:17:51.143Z,100767.53
2022-09-10T14:20:18.667Z,100760.75
2022-09-10T14:22:45.517Z,100768.22
2022-09-10T14:25:37.401Z,100771.53
2022-09-10T14:28:16.327Z,100779.84
2022-09-10T14:30:44.488Z,100783.19
2022-09-10T14:33:33.320Z,100777.31
2022-09-10T14:36:33.867Z,100775.53
2022-09-10T14:39:18.239Z,100787.00
2022-09-10T14:41:45.613Z,100776.69
2022-09-10T14:44:22.523Z,100792.88
2022-09-10T14:46:57.489Z,100774.47
2022-09-10T14:49:32.234Z,100784.66
2022-09-10T14:51:59.981Z,100785.66
2022-09-10T14:54:28.707Z,100784.91
2022-09-10T14:57:02.556Z,100782.25
2022-09-10T14:59:33.212Z,100785.41
2022-09-10T15:02:01.462Z,100779.44
2022-09-10T15:04:30.269Z,100780.53
2022-09-10T15:06:58.472Z,100785.22
2022-09-10T15:09:27.396Z,100788.53
2022-09-10T15:12:06.469Z,100782.50
2022-09-10T15:14:33.789Z,100783.88
2022-09-10T15:17:01.031Z,100780.88
2022-09-10T15:19:28.132Z,100784.25
2022-09-10T15:21:57.731Z,100789.84
2022-09-10T15:24:25.483Z,100781.94
2022-09-10T15:26:52.724Z,100777.25
2022-09-10T15:29:19.842Z,100774.94
2022-09-10T15:31:47.199Z,100789.50
2022-09-10T15:34:14.465Z,100780.75
2022-09-10T15:36:42.068Z,100785.84
2022-09-10T15:39:11.786Z,100794.88
2022-09-10T15:41:43.161Z,100788.69
2022-09-10T15:44:10.353Z,100793.41
2022-09-10T15:46:40.833Z,100791.88
2022-09-10T15:49:08.170Z,100791.25
2022-09-10T15:51:34.931Z,100794.97
2022-09-10T15:54:04.904Z,100792.38
2022-09-10T15:56:32.727Z,100796.03
2022-09-10T15:58:59.876Z,100796.88
2022-09-10T16:01:29.004Z,100794.41
2022-09-10T16:03:57.692Z,100801.97
2022-09-10T16:06:27.517Z,100795.19
2022-09-10T16:08:57.580Z,100805.69
2022-09-10T16:11:25.356Z,100794.56
2022-09-10T16:13:52.580Z,100792.38
2022-09-10T16:16:23.930Z,100795.59
2022-09-10T16:18:56.270Z,100787.22
2022-09-10T16:21:26.276Z,100800.44
2022-09-10T16:23:55.542Z,100798.22
2022-09-10T16:26:24.573Z,100801.44
2022-09-10T16:28:59.150Z,100796.50
2022-09-10T16:31:28.465Z,100808.72
2022-09-10T16:33:57.627Z,100802.78
2022-09-10T16:36:25.128Z,100801.44
2022-09-10T16:38:56.063Z,100806.47
2022-09-10T16:41:23.813Z,100802.38
2022-09-10T16:43:50.793Z,100813.72
2022-09-10T16:46:18.301Z,100809.41
2022-09-10T16:48:45.575Z,100821.72
2022-09-10T16:51:14.408Z,100825.66
2022-09-10T16:53:42.774Z,100827.38
2022-09-10T16:56:12.859Z,100827.75
2022-09-10T16:58:41.423Z,100833.41
2022-09-10T17:01:09.556Z,100834.66
2022-09-10T17:03:41.048Z,100840.19
2022-09-10T17:06:15.035Z,100830.56
2022-09-10T17:08:42.259Z,100835.34
2022-09-10T17:11:10.011Z,100834.59
2022-09-10T17:13:37.840Z,100835.81
2022-09-10T17:16:16.837Z,100841.13
2022-09-10T17:18:44.653Z,100839.66
2022-09-10T17:21:11.731Z,100833.69
2022-09-10T17:23:38.635Z,100832.09
2022-09-10T17:26:06.808Z,100828.75
2022-09-10T17:28:33.704Z,100823.81
2022-09-10T17:31:00.769Z,100832.25
2022-09-10T17:33:28.276Z,100835.41
2022-09-10T17:35:56.848Z,100829.50
2022-09-10T17:38:25.078Z,100835.50
2022-09-10T17:41:01.513Z,100843.22
2022-09-10T17:43:29.687Z,100847.25
2022-09-10T17:45:56.492Z,100850.53
2022-09-10T17:48:27.582Z,100858.22
2022-09-10T17:50:55.068Z,100860.31
2022-09-10T17:53:21.875Z,100860.75
2022-09-10T17:55:48.711Z,100862.94
2022-09-10T17:58:16.720Z,100858.06
2022-09-10T18:00:48.875Z,100868.38
2022-09-10T18:03:17.754Z,100865.88
2022-09-10T18:05:46.245Z,100874.22
2022-09-10T18:08:13.431Z,100875.41
2022-09-10T18:10:40.439Z,100882.13
2022-09-10T18:13:08.325Z,100885.88
2022-09-10T18:15:40.417Z,100882.53
2022-09-10T18:18:07.199Z,100889.03
2022-09-10T18:20:33.966Z,100892.94
2022-09-10T18:23:01.259Z,100888.81
2022-09-10T18:25:32.145Z,100888.16
2022-09-10T18:28:01.571Z,100892.94
2022-09-10T18:30:29.438Z,100894.91
2022-09-10T18:32:56.433Z,100892.28
2022-09-10T18:35:23.792Z,100899.00
2022-09-10T18:37:51.882Z,100898.75
2022-09-10T18:40:19.785Z,100898.22
2022-09-10T18:42:47.951Z,100895.53
2022-09-10T18:45:14.823Z,100897.34
2022-09-10T18:47:44.845Z,100895.63
2022-09-10T18:50:13.346Z,100895.72
2022-09-10T18:52:40.175Z,100894.22
2022-09-10T18:55:07.320Z,100892.47
2022-09-10T18:57:34.235Z,100895.59
2022-09-10T19:00:01.286Z,100890.41
2022-09-10T19:02:28.102Z,100895.06
2022-09-10T19:05:10.760Z,100891.78
2022-09-10T19:07:38.754Z,100886.81
2022-09-10T19:10:07.257Z,100887.78
2022-09-10T19:12:34.093Z,100887.88
2022-09-10T19:15:01.023Z,100893.34
2022-09-10T19:17:27.822Z,100889.22
2022-09-10T19:19:54.663Z,100889.56
2022-09-10T19:22:22.340Z,100892.44
2022-09-10T19:24:56.534Z,100888.88
2022-09-10T19:27:24.415Z,100886.41
2022-09-10T19:29:52.046Z,100882.16
2022-09-10T19:32:20.403Z,100883.31
2022-09-10T19:34:52.082Z,100880.19
2022-09-10T19:37:19.899Z,100878.56
2022-09-10T19:39:47.704Z,100874.31
2022-09-10T19:42:14.502Z,100866.22
2022-09-10T19:44:41.183Z,100867.19
2022-09-10T19:47:07.952Z,100873.75
2022-09-10T19:49:34.628Z,100876.69
2022-09-10T19:52:01.770Z,100876.97
2022-09-10T19:54:30.488Z,100874.47
2022-09-10T19:57:00.158Z,100877.47
2022-09-10T19:59:27.039Z,100867.66
2022-09-10T20:01:53.874Z,100869.75
2022-09-10T20:04:21.349Z,100874.31
2022-09-10T20:06:50.442Z,100872.00
2022-09-10T20:09:17.350Z,100882.81
2022-09-10T20:11:44.215Z,100877.72
2022-09-10T20:14:13.622Z,100882.34
2022-09-10T20:16:42.998Z,100884.38
2022-09-10T20:19:11.365Z,100884.63
2022-09-10T20:21:38.170Z,100887.47
2022-09-10T20:24:07.279Z,100892.16
2022-09-10T20:26:38.059Z,100887.06
2022-09-10T20:29:12.276Z,100889.84
2022-09-10T20:31:41.310Z,100887.41
2022-09-10T20:34:14.246Z,100886.56
2022-09-10T20:36:44.423Z,100893.22
2022-09-10T20:39:16.368Z,100902.38
2022-09-10T20:41:43.981Z,100897.34
2022-09-10T20:44:13.167Z,100893.13
2022-09-10T20:46:41.558Z,100891.50
2022-09-10T20:49:10.511Z,100895.34
2022-09-10T20:51:38.951Z,100888.41
2022-09-10T20:54:08.309Z,100894.56
2022-09-10T20:56:35.073Z,100892.44
2022-09-10T20:59:02.122Z,100893.38
2022-09-10T21:01:31.299Z,100898.00
2022-09-10T21:03:59.575Z,100895.44
2022-09-10T21:06:28.423Z,100903.78
2022-09-10T21:08:57.980Z,100898.59
2022-09-10T21:11:26.934Z,100901.47
2022-09-10T21:13:56.124Z,100904.38
2022-09-10T21:16:25.275Z,100892.81
2022-09-10T21:18:54.886Z,100909.16
2022-09-10T21:21:25.556Z,100904.91
2022-09-10T21:24:19.697Z,100908.53
2022-09-10T21:26:46.391Z,100906.13
2022-09-10T21:29:18.527Z,100899.19
2022-09-10T21:31:46.032Z,100911.81
2022-09-10T21:34:13.845Z,100904.88
2022-09-10T21:36:41.401Z,100909.50
2022-09-10T21:39:12.787Z,100913.22
2022-09-10T21:41:42.647Z,100913.47
2022-09-10T21:44:14.567Z,100919.81
2022-09-10T21:46:45.450Z,100920.78
2022-09-10T21:49:13.057Z,100920.97
2022-09-10T21:51:40.558Z,100918.34
2022-09-10T21:54:07.786Z,100914.13
2022-09-10T21:56:34.605Z,100902.66
2022-09-10T21:59:01.463Z,100908.88
2022-09-10T22:01:30.789Z,100913.50
2022-09-10T22:04:00.602Z,100920.72
2022-09-10T22:06:29.732Z,100911.78
2022-09-10T22:08:58.563Z,100920.81
2022-09-10T22:11:30.348Z,100918.31
2022-09-10T22:14:02.398Z,100922.03
2022-09-10T22:16:31.318Z,100918.56
2022-09-10T22:19:00.488Z,100918.56
2022-09-10T22:21:27.643Z,100922.09
2022-09-10T22:23:54.457Z,100921.16
2022-09-10T22:26:24.223Z,100924.72
2022-09-10T22:28:54.782Z,100928.31
2022-09-10T22:31:23.718Z,100927.25
2022-09-10T22:33:59.072Z,100927.25
2022-09-10T22:36:29.025Z,100923.59
2022-09-10T22:39:06.665Z,100931.50
2022-09-10T22:41:34.962Z,100926.97
2022-09-10T22:44:02.623Z,100935.03
2022-09-10T22:46:29.825Z,100933.13
2022-09-10T22:48:56.795Z,100935.81
2022-09-10T22:51:26.013Z,100927.94
2022-09-10T22:53:53.635Z,100933.91
2022-09-10T22:56:22.289Z,100935.66
2022-09-10T22:58:52.323Z,100933.81
2022-09-10T23:01:21.584Z,100934.59
2022-09-10T23:03:48.652Z,100938.00
2022-09-10T23:06:20.516Z,100946.06
2022-09-10T23:08:50.489Z,100948.56
2022-09-10T23:11:21.212Z,100952.16
2022-09-10T23:13:54.025Z,100955.63
2022-09-10T23:16:26.324Z,100950.13
2022-09-10T23:18:55.228Z,100953.72
2022-09-10T23:21:24.067Z,100956.31
2022-09-10T23:23:53.705Z,100943.75
2022-09-10T23:26:21.818Z,100948.25
2022-09-10T23:28:48.939Z,100953.53
2022-09-10T23:31:20.895Z,100946.31
2022-09-10T23:33:59.246Z,100948.06
2022-09-10T23:36:33.090Z,100951.72
2022-09-10T23:39:00.636Z,100949.91
2022-09-10T23:41:27.682Z,100951.63
2022-09-10T23:43:54.730Z,100953.53
2022-09-10T23:46:21.716Z,100960.69
2022-09-10T23:48:49.501Z,100958.84
2022-09-10T23:51:20.479Z,100960.75
2022-09-10T23:53:48.357Z,100962.59
2022-09-10T23:56:19.741Z,100959.00
2022-09-10T23:58:47.804Z,100956.31
